Airfield :
LOGIN :

Register | Disclaimer

   EN    FR    IT 

 










Legend :    VFR   Marginal VFR   IFR   Intensive IFR   Very Intensive IFR
Visi :
Ceiling :
>= 8 km
>= 3000ft
5 to 8 km
1000 to 3000 ft
1500m to 5 km
500 to 1000 ft
800 to 1500m
200 to 500 ft
< 800m
< 200 ft
Symbols :   Thunderstorms  Fog  Heavy snow  Heavy precipitations  Wind > 20 kt
SIGMETs :     Misc.  Thunderstorms  Icing  Turbulence  Mountain Waves  Volcanic Ashes






- Airport Elevation : 1830 ft


EBLB - Butgenbach Elsenborn

CURRENT METAR :
  • 161255Z AUTO 19006KT 3500 BR OVC002/// 07/07 Q1004 AMB

EXPIRED METARs :
  • 161225Z AUTO 19005KT 6000 OVC002/// 07/07 Q1005 AMB
  • 161212Z AUTO 20004KT 9999 OVC002/// 07/07 Q1005 AMB
  • 161155Z AUTO 19005KT 9000 -DZ OVC003/// 07/06 Q1005 YLO
  • 161125Z AUTO VRB02KT 5000 -RA OVC003/// 06/06 Q1005 YLO
  • 161103Z AUTO VRB02KT 4500 -RA SCT004/// BKN015/// OVC043/// 06/06 Q1006 YLO
  • 161042Z AUTO 21003KT 4900 -RA FEW004/// OVC022/// OVC036/// 06/06 Q1006 GRN
  • 161025Z AUTO 20003KT 7000 -RA OVC015/// 06/06 Q1006 WHT

Expired Forecast.



MET'MAP, your aeronautical weather chart ! - Copyright ORBIFLY December 2007 - Disclaimer

ORBIFLY MET'MAP TEAM :

Programming & Development : Alexandra Zaïnal
Concept & original design : Baudouin d'Aumeries
Assistance for programming : Marc-Olivier Méhu
Technical & hardware support : Manuel Goepfert

Contact : metmap@orbifly.com




SOURCES & CREDITS :

   NOAA